Time;durP1;ratioP1;P1;durP2;ratioP2;P2;SDS_P1;SDS_P2;PMS_P1;PMS_P2;Temp;Humidity;BMP_temperature;BMP_pressure;BME280_temperature;BME280_humidity;BME280_pressure;Samples;Min_cycle;Max_cycle;Signal;HPM_P1;HPM_P2
2021/08/19 00:01:48;;;;;;;5.40;4.28;;;16.30;75.10;;;16.29;59.70;94964.00;5015400;28;20637;-79
2021/08/19 00:04:17;;;;;;;5.72;4.43;;;16.40;75.10;;;16.31;59.70;94977.84;5015323;28;20212;-78
2021/08/19 00:06:45;;;;;;;5.60;4.20;;;16.40;75.10;;;16.30;59.82;94960.34;4998795;28;20616;-79
2021/08/19 00:09:12;;;;;;;6.40;4.43;;;16.40;75.10;;;16.33;59.84;94970.47;5042253;28;20199;-79
2021/08/19 00:11:40;;;;;;;7.90;5.20;;;16.40;75.10;;;16.35;60.06;94966.81;5034781;28;20246;-79
2021/08/19 00:14:07;;;;;;;5.95;4.47;;;16.50;75.20;;;16.37;60.05;94959.44;5034241;28;20196;-79
2021/08/19 00:16:34;;;;;;;8.07;4.55;;;16.50;75.20;;;16.39;59.72;94960.81;5023402;28;20215;-79
2021/08/19 00:19:01;;;;;;;6.00;4.50;;;16.50;75.20;;;16.43;59.75;94959.34;5034602;28;20199;-79
2021/08/19 00:21:30;;;;;;;7.68;5.18;;;16.50;75.30;;;16.46;59.71;94953.56;5034490;28;20298;-79
2021/08/19 00:23:58;;;;;;;6.03;4.38;;;16.50;75.30;;;16.51;59.77;94963.50;5017283;28;20196;-79
2021/08/19 00:26:26;;;;;;;7.47;4.53;;;16.50;75.30;;;16.54;59.96;94959.56;5031140;28;20243;-78
2021/08/19 00:28:53;;;;;;;7.25;5.00;;;16.60;75.30;;;16.56;59.83;94954.88;4998435;28;20196;-79
2021/08/19 00:31:22;;;;;;;6.25;4.32;;;16.70;75.30;;;16.57;59.76;94954.63;5032055;28;20302;-79
2021/08/19 00:33:53;;;;;;;5.90;4.32;;;16.60;75.20;;;16.57;59.66;94949.34;5015258;28;20196;-78
2021/08/19 00:36:20;;;;;;;8.85;5.00;;;16.60;75.50;;;16.58;60.17;94956.25;5014730;28;20438;-79
2021/08/19 00:38:47;;;;;;;6.30;4.47;;;16.60;75.20;;;16.59;59.89;94955.22;5014728;28;20192;-79
2021/08/19 00:41:17;;;;;;;6.15;4.43;;;16.70;75.30;;;16.60;59.72;94951.53;5015023;28;20650;-79
2021/08/19 00:43:45;;;;;;;6.55;4.50;;;16.70;75.60;;;16.60;59.81;94951.53;4998457;28;20206;-79
2021/08/19 00:46:32;;;;;;;6.55;4.75;;;16.60;75.30;;;16.62;59.97;94948.66;5031047;28;20641;-79
2021/08/19 00:49:12;;;;;;;7.10;4.75;;;16.70;75.80;;;16.64;59.60;94949.25;5030987;28;20632;-79
2021/08/19 00:51:47;;;;;;;6.25;4.72;;;16.70;75.70;;;16.67;60.19;94947.97;5039059;28;20219;-79
2021/08/19 00:54:18;;;;;;;6.15;4.28;;;16.70;75.60;;;16.69;59.67;94943.28;5016326;28;20286;-79
2021/08/19 00:56:46;;;;;;;5.82;4.25;;;16.80;75.50;;;16.71;60.14;94949.94;5034244;28;20216;-79
2021/08/19 00:59:14;;;;;;;7.28;4.68;;;16.80;75.40;;;16.72;60.20;94956.03;5028741;28;20200;-79
2021/08/19 01:01:41;;;;;;;5.72;4.50;;;16.80;75.40;;;16.72;59.68;94948.91;5014850;28;20311;-79
2021/08/19 01:04:10;;;;;;;6.10;4.43;;;16.80;75.40;;;16.72;59.67;94943.63;5014432;28;20301;-79
2021/08/19 01:06:38;;;;;;;6.47;4.78;;;16.80;75.40;;;16.72;59.98;94938.31;5039114;28;20298;-79
2021/08/19 01:09:07;;;;;;;6.18;4.70;;;16.80;75.30;;;16.72;60.00;94940.97;5030916;28;20188;-79
2021/08/19 01:11:35;;;;;;;6.13;4.50;;;16.80;75.30;;;16.71;60.35;94943.81;5032423;28;20211;-78
2021/08/19 01:14:04;;;;;;;6.80;4.47;;;16.80;75.30;;;16.72;60.03;94945.44;5002950;28;20218;-79
2021/08/19 01:16:31;;;;;;;5.95;4.40;;;16.80;75.30;;;16.69;59.81;94943.28;5001735;28;20232;-79
2021/08/19 01:18:59;;;;;;;6.53;4.50;;;16.80;75.20;;;16.70;59.78;94937.72;5018999;28;20192;-79
2021/08/19 01:21:26;;;;;;;7.93;4.93;;;16.80;75.30;;;16.69;60.05;94930.03;5002206;28;20243;-79
2021/08/19 01:23:53;;;;;;;7.22;4.70;;;16.90;75.40;;;16.72;59.89;94938.31;5033544;28;20617;-79
2021/08/19 01:26:21;;;;;;;6.78;4.65;;;16.90;75.40;;;16.73;60.32;94926.66;5050944;28;20247;-78
2021/08/19 01:28:49;;;;;;;7.45;4.30;;;16.90;75.50;;;16.75;59.89;94926.47;5019064;28;20200;-79
2021/08/19 01:31:21;;;;;;;7.72;4.82;;;16.90;75.50;;;16.74;60.45;94936.22;5034234;28;20239;-79
2021/08/19 01:33:49;;;;;;;8.00;5.03;;;16.80;75.60;;;16.74;60.01;94928.28;5027816;28;20238;-79
2021/08/19 01:36:16;;;;;;;6.95;4.45;;;16.80;75.50;;;16.77;60.43;94922.53;5034369;28;20235;-79
2021/08/19 01:38:46;;;;;;;6.65;4.10;;;16.90;75.50;;;16.78;60.42;94918.84;5018057;28;20647;-79
2021/08/19 01:41:13;;;;;;;5.88;4.47;;;17.00;75.70;;;16.79;60.05;94927.59;5033804;28;20712;-79
2021/08/19 01:43:42;;;;;;;6.63;5.00;;;16.80;75.50;;;16.80;60.09;94916.75;5017721;28;20721;-79
2021/08/19 01:46:12;;;;;;;7.75;4.82;;;16.80;75.60;;;16.82;60.09;94919.22;5017834;28;20215;-79
2021/08/19 01:48:46;;;;;;;7.70;4.07;;;16.90;75.70;;;16.81;60.39;94917.59;5034653;28;20579;-79
2021/08/19 01:51:20;;;;;;;6.43;4.35;;;17.00;75.90;;;16.83;59.93;94925.28;5034079;28;20240;-79
2021/08/19 01:53:51;;;;;;;7.05;4.68;;;16.90;75.70;;;16.83;59.91;94920.00;5018258;28;20587;-79
2021/08/19 01:56:22;;;;;;;5.25;4.00;;;16.90;75.90;;;16.84;60.13;94914.47;5005614;28;20310;-79
2021/08/19 01:58:56;;;;;;;6.03;4.20;;;16.90;75.70;;;16.85;60.42;94920.59;5053812;28;20192;-79
2021/08/19 02:01:25;;;;;;;5.88;4.30;;;16.90;75.70;;;16.86;60.56;94914.25;5021011;28;20223;-79
2021/08/19 02:03:55;;;;;;;6.40;4.28;;;17.00;75.80;;;16.87;60.36;94907.88;5036708;28;20648;-79
2021/08/19 02:06:22;;;;;;;6.28;4.57;;;16.90;75.80;;;16.88;60.57;94902.38;5037207;28;20307;-79
2021/08/19 02:08:49;;;;;;;6.97;4.50;;;17.00;75.80;;;16.89;60.12;94906.63;5000996;28;20196;-79
2021/08/19 02:11:17;;;;;;;8.30;5.03;;;16.90;75.80;;;16.92;60.72;94911.50;5017297;28;20220;-79
2021/08/19 02:13:45;;;;;;;7.28;5.20;;;17.00;75.90;;;16.93;60.52;94917.59;5018902;28;20645;-79
2021/08/19 02:16:13;;;;;;;6.28;5.03;;;17.10;75.90;;;16.95;60.25;94918.19;5034213;28;20249;-78
2021/08/19 02:18:40;;;;;;;8.60;5.15;;;17.00;75.80;;;16.96;60.15;94914.50;5017065;28;20196;-79
2021/08/19 02:21:07;;;;;;;7.18;5.05;;;17.00;75.90;;;16.97;60.51;94913.47;5018490;28;20745;-79
2021/08/19 02:23:34;;;;;;;7.22;5.10;;;17.00;75.80;;;17.00;60.54;94917.50;4999417;28;20192;-78
2021/08/19 02:26:02;;;;;;;7.22;5.20;;;17.00;75.80;;;17.01;60.21;94911.16;5000698;28;20659;-79
2021/08/19 02:28:29;;;;;;;6.88;4.65;;;17.10;75.90;;;17.02;60.48;94910.91;5016842;28;20693;-79
2021/08/19 02:30:57;;;;;;;6.70;4.57;;;17.10;76.10;;;17.02;59.81;94912.78;5003006;28;20307;-79
2021/08/19 02:33:24;;;;;;;6.15;4.35;;;17.10;76.00;;;17.04;60.54;94916.81;5020212;28;20729;-79
2021/08/19 02:35:51;;;;;;;7.95;5.40;;;17.00;76.00;;;17.04;60.51;94908.84;5050962;28;20628;-79
2021/08/19 02:38:19;;;;;;;6.32;4.60;;;17.10;76.00;;;17.07;60.66;94910.22;5053320;28;20195;-79
2021/08/19 02:40:46;;;;;;;6.93;5.05;;;17.10;76.10;;;17.07;60.78;94921.63;5037786;28;20216;-78
2021/08/19 02:43:13;;;;;;;6.15;4.82;;;17.10;76.00;;;17.08;60.46;94922.44;5029954;28;20200;-79
2021/08/19 02:45:40;;;;;;;6.18;4.65;;;17.10;76.00;;;17.08;60.15;94920.59;5036375;28;20213;-79
2021/08/19 02:48:08;;;;;;;5.47;4.35;;;17.10;76.00;;;17.09;60.48;94922.19;5015770;28;20564;-78
2021/08/19 02:50:35;;;;;;;6.55;4.85;;;17.10;76.00;;;17.07;60.63;94921.63;5016696;28;20247;-79
2021/08/19 02:53:03;;;;;;;6.63;4.90;;;17.10;76.00;;;17.10;60.32;94923.81;5041934;28;20219;-79
2021/08/19 02:55:31;;;;;;;7.78;5.38;;;17.10;75.90;;;17.10;60.22;94920.34;5035538;28;20314;-79
2021/08/19 02:57:58;;;;;;;7.30;4.88;;;17.20;76.00;;;17.09;60.36;94916.91;5052657;28;20332;-79
2021/08/19 03:00:25;;;;;;;8.80;5.28;;;17.20;76.00;;;17.06;60.44;94906.75;5052161;28;20225;-79
2021/08/19 03:02:53;;;;;;;8.00;5.63;;;17.20;76.00;;;17.10;60.59;94909.75;5019324;28;20199;-79
2021/08/19 03:05:21;;;;;;;8.27;5.40;;;17.10;75.90;;;17.08;60.60;94909.97;5032324;28;20230;-77
2021/08/19 03:07:48;;;;;;;7.28;5.13;;;17.20;76.00;;;17.08;60.47;94909.97;5015839;28;20196;-79
2021/08/19 03:10:15;;;;;;;7.18;5.38;;;17.20;76.00;;;17.10;60.48;94909.75;5032126;28;20219;-78
2021/08/19 03:12:42;;;;;;;7.68;4.93;;;17.10;75.90;;;17.07;60.47;94912.88;5026961;28;20196;-78
2021/08/19 03:15:10;;;;;;;7.80;5.15;;;17.20;76.10;;;17.10;60.89;94909.75;5043482;28;20224;-79
2021/08/19 03:17:37;;;;;;;8.80;5.68;;;17.20;76.10;;;17.11;60.43;94909.53;5065333;28;20654;-79
2021/08/19 03:20:05;;;;;;;7.68;5.13;;;17.20;76.00;;;17.11;60.81;94912.19;5041715;28;20289;-78
2021/08/19 03:22:32;;;;;;;7.53;5.20;;;17.20;76.10;;;17.13;60.96;94909.28;5004314;28;20726;-79
2021/08/19 03:25:00;;;;;;;7.47;5.10;;;17.20;76.10;;;17.12;60.42;94911.16;5030137;28;20223;-78
2021/08/19 03:27:29;;;;;;;7.40;5.18;;;17.20;76.20;;;17.13;60.60;94910.09;5015600;28;20749;-79
2021/08/19 03:29:56;;;;;;;7.28;5.28;;;17.20;76.10;;;17.14;60.63;94913.56;5017553;28;20212;-77
2021/08/19 03:32:23;;;;;;;8.43;5.55;;;17.20;76.10;;;17.15;60.94;94907.22;5015893;28;20663;-78
2021/08/19 03:34:50;;;;;;;8.05;5.47;;;17.20;76.20;;;17.16;60.72;94906.16;5016198;28;20215;-79
2021/08/19 03:37:17;;;;;;;8.00;5.40;;;17.20;76.30;;;17.16;60.90;94911.47;4999192;28;20224;-79
2021/08/19 03:39:44;;;;;;;7.68;5.20;;;17.20;76.20;;;17.17;61.08;94897.19;5017763;28;20679;-77
2021/08/19 03:42:12;;;;;;;6.85;5.15;;;17.20;76.30;;;17.17;60.71;94907.78;5020127;28;20183;-78
2021/08/19 03:44:39;;;;;;;7.88;5.07;;;17.30;76.50;;;17.20;60.95;94911.81;5036666;28;20200;-78
2021/08/19 03:47:06;;;;;;;8.43;5.30;;;17.30;76.40;;;17.16;61.22;94900.84;5031625;28;20283;-79
2021/08/19 03:49:33;;;;;;;7.63;4.90;;;17.20;76.40;;;17.20;60.68;94899.38;5031001;28;20687;-78
2021/08/19 03:52:00;;;;;;;5.72;4.70;;;17.20;76.40;;;17.19;60.77;94891.66;5033132;28;20199;-78
2021/08/19 03:54:28;;;;;;;8.48;5.53;;;17.20;76.40;;;17.23;61.27;94898.09;5014958;28;20684;-78
2021/08/19 03:56:55;;;;;;;6.18;4.82;;;17.30;76.40;;;17.24;60.76;94891.75;5014965;28;20220;-79
2021/08/19 03:59:22;;;;;;;7.55;5.45;;;17.20;76.40;;;17.21;61.22;94884.25;5037068;28;20196;-78
2021/08/19 04:01:49;;;;;;;7.88;5.65;;;17.30;76.40;;;17.24;61.09;94891.75;5035186;28;20220;-78
2021/08/19 04:04:17;;;;;;;8.10;5.40;;;17.30;76.50;;;17.23;61.08;94885.63;5032552;28;20206;-77
2021/08/19 04:06:45;;;;;;;7.18;5.05;;;17.30;76.40;;;17.25;60.96;94893.38;5047896;28;20677;-78
2021/08/19 04:09:12;;;;;;;8.55;5.68;;;17.30;76.40;;;17.28;60.80;94896.38;5047736;28;20203;-79
2021/08/19 04:11:40;;;;;;;11.48;6.47;;;17.30;76.30;;;17.30;61.25;94893.47;5015712;28;20689;-79
2021/08/19 04:14:07;;;;;;;7.50;5.10;;;17.30;76.40;;;17.32;60.98;94887.94;5047607;28;20282;-79
2021/08/19 04:16:34;;;;;;;8.23;5.57;;;17.30;76.40;;;17.33;60.74;94893.00;5046945;28;20215;-80
2021/08/19 04:19:01;;;;;;;7.40;4.88;;;17.30;76.50;;;17.37;61.11;94888.03;5011558;28;20196;-80
2021/08/19 04:21:29;;;;;;;7.80;5.20;;;17.40;76.50;;;17.37;60.95;94886.19;4997764;28;20571;-79
2021/08/19 04:23:56;;;;;;;9.93;6.85;;;17.40;76.60;;;17.41;61.07;94889.19;5012603;28;20298;-80
2021/08/19 04:26:23;;;;;;;8.25;6.90;;;17.50;76.60;;;17.43;61.26;94897.69;4996095;28;20207;-78
2021/08/19 04:28:50;;;;;;;7.35;6.18;;;17.40;76.50;;;17.44;60.65;94904.59;5018894;28;20242;-80
2021/08/19 04:31:17;;;;;;;6.32;4.90;;;17.50;76.70;;;17.47;60.94;94903.31;5031182;28;20298;-78
2021/08/19 04:33:45;;;;;;;6.85;4.85;;;17.40;76.70;;;17.46;61.25;94905.19;5015891;28;20740;-79
2021/08/19 04:36:12;;;;;;;7.05;4.40;;;17.50;76.80;;;17.46;61.35;94897.22;5029041;28;20238;-80
2021/08/19 04:38:39;;;;;;;9.90;7.10;;;17.40;76.70;;;17.46;61.10;94902.53;5050826;28;20750;-80
2021/08/19 04:41:07;;;;;;;22.58;16.50;;;17.50;76.70;;;17.45;61.23;94895.63;5047094;28;20223;-80
2021/08/19 04:43:34;;;;;;;14.02;9.88;;;17.60;76.70;;;17.48;61.07;94903.13;5023214;28;20734;-79
2021/08/19 04:46:01;;;;;;;10.70;8.07;;;17.50;76.60;;;17.52;61.10;94906.09;5048371;28;20306;-79
2021/08/19 04:48:28;;;;;;;9.05;6.63;;;17.60;76.80;;;17.54;60.90;94904.00;5023844;28;20621;-79
2021/08/19 04:50:55;;;;;;;6.75;5.43;;;17.50;76.90;;;17.55;61.49;94906.44;5035262;28;20208;-78
2021/08/19 04:53:23;;;;;;;6.70;5.20;;;17.60;77.10;;;17.58;60.95;94910.47;5043180;28;20195;-79
2021/08/19 04:55:50;;;;;;;6.22;4.90;;;17.50;76.80;;;17.60;61.24;94909.19;5041682;28;20238;-80
2021/08/19 04:58:17;;;;;;;7.15;4.60;;;17.50;76.90;;;17.57;61.28;94901.69;5034501;28;20211;-78
2021/08/19 05:00:44;;;;;;;6.68;4.88;;;17.60;77.00;;;17.63;61.70;94902.59;5034999;28;20711;-78
2021/08/19 05:03:12;;;;;;;5.90;4.18;;;17.60;77.10;;;17.68;61.37;94908.00;5019257;28;20265;-77
2021/08/19 05:05:40;;;;;;;6.43;4.82;;;17.60;77.20;;;17.72;61.57;94911.81;5038214;28;20238;-78
2021/08/19 05:08:07;;;;;;;5.35;4.60;;;17.70;77.20;;;17.74;61.56;94899.09;5038093;28;20198;-77
2021/08/19 05:10:35;;;;;;;6.22;4.75;;;17.80;77.30;;;17.80;61.69;94897.34;5033685;28;20211;-78
2021/08/19 05:13:03;;;;;;;12.02;7.75;;;17.70;77.30;;;17.87;61.23;94905.97;5054160;28;20274;-78
2021/08/19 05:15:30;;;;;;;8.55;5.90;;;17.80;77.10;;;17.91;61.19;94901.00;5036023;28;20665;-77
2021/08/19 05:17:57;;;;;;;6.22;5.30;;;17.90;76.30;;;17.95;61.10;94904.78;5017932;28;20204;-78
2021/08/19 05:20:24;;;;;;;10.60;8.23;;;17.90;77.00;;;18.02;60.94;94907.31;5018266;28;20216;-78
2021/08/19 05:22:51;;;;;;;9.48;6.60;;;17.90;76.90;;;18.06;60.68;94898.63;5022348;28;20385;-76
2021/08/19 05:25:19;;;;;;;9.35;6.05;;;18.00;76.90;;;18.18;60.67;94901.22;5037773;28;20207;-78
2021/08/19 05:27:46;;;;;;;7.53;5.47;;;18.10;77.00;;;18.26;60.71;94904.53;5037819;28;20199;-78
2021/08/19 05:30:14;;;;;;;6.43;4.90;;;18.10;76.90;;;18.34;60.84;94909.44;5020231;28;20219;-78
2021/08/19 05:32:41;;;;;;;6.00;4.72;;;18.10;76.90;;;18.43;61.07;94900.03;5015857;28;20299;-78
2021/08/19 05:35:09;;;;;;;7.55;5.05;;;18.20;77.00;;;18.46;60.43;94899.53;5028451;28;20219;-78
2021/08/19 05:37:36;;;;;;;5.95;4.65;;;18.30;76.90;;;18.59;60.65;94908.22;5037740;28;20266;-78
2021/08/19 05:40:03;;;;;;;5.47;4.60;;;18.40;77.00;;;18.66;60.54;94896.41;5037010;28;20221;-78
2021/08/19 05:42:31;;;;;;;6.35;5.03;;;18.40;77.00;;;18.74;60.61;94895.19;5033084;28;20754;-78
2021/08/19 05:44:58;;;;;;;7.40;4.93;;;18.60;77.00;;;18.84;60.37;94908.59;5017192;28;20204;-78
2021/08/19 05:47:25;;;;;;;6.38;4.43;;;18.60;76.90;;;18.94;60.43;94909.84;5048637;28;20752;-79
2021/08/19 05:49:52;;;;;;;9.20;4.78;;;18.60;76.90;;;19.02;60.17;94914.75;5032877;28;20227;-78
2021/08/19 05:52:19;;;;;;;6.45;5.00;;;18.70;77.00;;;19.09;60.56;94910.06;5016595;28;20250;-78
2021/08/19 05:54:46;;;;;;;6.97;4.55;;;18.80;77.00;;;19.18;59.82;94913.09;5031957;28;20206;-78
2021/08/19 05:57:16;;;;;;;5.80;4.05;;;19.00;76.80;;;19.25;60.20;94910.25;5023046;28;20215;-78
2021/08/19 05:59:43;;;;;;;6.63;4.53;;;19.00;76.80;;;19.31;60.36;94909.25;5052645;28;20294;-78
2021/08/19 06:02:11;;;;;;;5.68;4.43;;;19.00;76.70;;;19.37;60.00;94902.94;5028964;28;20200;-78
2021/08/19 06:04:39;;;;;;;7.00;4.78;;;19.10;76.60;;;19.43;59.96;94901.97;4999545;28;20673;-78
2021/08/19 06:07:09;;;;;;;5.43;4.43;;;19.20;76.70;;;19.54;59.63;94913.53;5016952;28;20199;-79
2021/08/19 06:09:37;;;;;;;7.68;4.70;;;19.20;76.50;;;19.62;59.94;94906.97;5001052;28;20568;-78
2021/08/19 06:12:05;;;;;;;6.88;4.93;;;19.30;76.30;;;19.67;59.31;94910.47;5017956;28;20227;-79
2021/08/19 06:14:33;;;;;;;6.13;4.57;;;19.40;76.30;;;19.73;59.27;94905.25;5001856;28;20279;-78
2021/08/19 06:17:00;;;;;;;6.35;4.68;;;19.40;76.20;;;19.79;59.63;94912.22;5017133;28;20228;-78
2021/08/19 06:19:30;;;;;;;5.53;4.65;;;19.50;76.10;;;19.81;59.39;94905.59;5033123;28;20196;-78
2021/08/19 06:21:57;;;;;;;6.13;4.90;;;19.50;76.00;;;19.83;59.43;94903.53;5033489;28;20275;-78
2021/08/19 06:24:24;;;;;;;5.68;4.57;;;19.60;76.00;;;19.89;59.44;94898.25;5049528;28;20277;-79
2021/08/19 06:26:51;;;;;;;5.90;4.45;;;19.60;75.90;;;19.93;59.21;94902.81;5020335;28;20223;-78
2021/08/19 06:29:18;;;;;;;5.35;4.57;;;19.70;75.90;;;19.98;59.28;94907.38;5036712;28;20298;-78
2021/08/19 06:31:46;;;;;;;6.03;4.30;;;19.70;76.00;;;20.01;59.66;94914.88;5022519;28;20244;-78
2021/08/19 06:34:15;;;;;;;6.63;4.90;;;19.80;76.00;;;20.04;59.39;94919.69;5016685;28;20262;-77
2021/08/19 06:36:43;;;;;;;5.65;4.47;;;19.80;75.70;;;20.07;59.13;94910.41;5026470;28;20224;-77
2021/08/19 06:39:10;;;;;;;5.57;4.28;;;19.90;75.90;;;20.11;59.51;94906.19;5043637;28;20302;-79
2021/08/19 06:41:38;;;;;;;6.05;4.65;;;19.90;75.80;;;20.15;59.06;94909.94;5029611;28;20269;-79
2021/08/19 06:44:05;;;;;;;7.75;5.20;;;19.90;75.80;;;20.19;58.75;94904.91;5043098;28;20192;-78
2021/08/19 06:46:32;;;;;;;8.00;4.80;;;19.90;75.80;;;20.21;59.24;94903.59;5041628;28;20692;-78
2021/08/19 06:49:00;;;;;;;5.95;4.28;;;20.00;75.80;;;20.30;58.90;94914.63;5042259;28;20226;-79
2021/08/19 06:51:30;;;;;;;5.40;4.70;;;20.00;75.80;;;20.36;59.14;94910.13;5024673;28;20561;-78
2021/08/19 06:53:58;;;;;;;5.90;4.40;;;20.10;75.90;;;20.44;58.71;94918.44;5033690;28;20203;-78
2021/08/19 06:56:25;;;;;;;5.07;4.30;;;20.10;76.50;;;20.50;58.67;94913.97;5026478;28;20224;-77
2021/08/19 06:58:54;;;;;;;6.75;4.75;;;20.20;75.70;;;20.56;58.90;94912.16;5042660;28;20201;-79
2021/08/19 07:01:22;;;;;;;6.45;4.68;;;20.20;75.80;;;20.59;58.96;94906.31;5017677;28;20264;-78
2021/08/19 07:03:50;;;;;;;6.28;4.85;;;20.30;75.60;;;20.66;58.61;94906.09;5011759;28;20200;-78
2021/08/19 07:06:17;;;;;;;6.57;5.43;;;20.40;75.70;;;20.70;58.79;94900.00;5040312;28;20244;-77
2021/08/19 07:08:45;;;;;;;6.70;4.25;;;20.40;75.50;;;20.75;58.51;94905.41;5040842;28;20246;-77
2021/08/19 07:11:12;;;;;;;5.78;4.22;;;20.50;75.50;;;20.79;58.32;94906.47;5041213;28;20313;-77
2021/08/19 07:13:40;;;;;;;6.25;4.32;;;20.50;75.40;;;20.84;58.74;94905.72;5040918;28;20188;-77
2021/08/19 07:16:07;;;;;;;6.47;4.88;;;20.50;75.40;;;20.87;58.24;94902.56;5033777;28;20249;-77
2021/08/19 07:18:35;;;;;;;7.25;4.72;;;20.60;75.40;;;20.93;58.31;94916.72;5014515;28;20192;-78
2021/08/19 07:21:02;;;;;;;6.43;4.53;;;20.60;75.10;;;20.93;57.92;94911.38;5010462;28;20326;-77
2021/08/19 07:23:29;;;;;;;6.63;4.55;;;20.70;75.00;;;20.90;58.31;94899.34;5043999;28;20946;-77
2021/08/19 07:25:56;;;;;;;5.90;4.72;;;20.70;74.80;;;20.93;57.88;94911.38;5030704;28;20344;-77
2021/08/19 07:28:24;;;;;;;6.22;4.30;;;20.70;74.70;;;20.95;58.09;94914.59;5047827;28;20273;-78
2021/08/19 07:30:51;;;;;;;5.75;3.95;;;20.70;74.60;;;20.99;58.05;94917.56;5032372;28;20221;-78
2021/08/19 07:33:19;;;;;;;6.22;4.50;;;20.80;74.80;;;21.05;58.00;94916.53;5043989;28;20187;-78
2021/08/19 07:35:49;;;;;;;7.38;4.35;;;20.80;75.00;;;21.13;58.06;94908.03;5032847;28;20216;-77
2021/08/19 07:38:18;;;;;;;5.85;4.57;;;20.80;75.00;;;21.25;57.72;94911.31;5040137;28;20234;-78
2021/08/19 07:40:47;;;;;;;7.25;5.25;;;20.90;75.00;;;21.35;57.69;94909.72;5042083;28;20592;-76
2021/08/19 07:43:15;;;;;;;8.05;5.65;;;21.00;74.80;;;21.41;57.44;94906.00;5040830;28;20216;-78
2021/08/19 07:45:42;;;;;;;5.82;4.60;;;21.10;74.50;;;21.49;57.50;94913.53;5012434;28;20391;-78
2021/08/19 07:48:14;;;;;;;7.90;5.78;;;21.20;74.60;;;21.57;56.29;94913.06;5016362;28;20660;-78
2021/08/19 07:50:42;;;;;;;6.30;4.97;;;21.20;74.00;;;21.66;56.39;94908.00;5015649;28;20318;-77
2021/08/19 07:53:11;;;;;;;8.35;5.63;;;21.30;74.00;;;21.71;56.13;94904.56;5041298;28;20271;-78
2021/08/19 07:55:38;;;;;;;7.35;5.50;;;21.40;73.50;;;21.75;55.80;94916.31;5013800;28;20235;-78
2021/08/19 07:58:06;;;;;;;8.63;6.30;;;21.40;73.40;;;21.73;55.58;94905.13;5028775;28;20248;-77
2021/08/19 08:00:35;;;;;;;10.52;5.22;;;21.50;73.10;;;21.77;55.38;94914.19;5028463;28;20295;-77
2021/08/19 08:03:04;;;;;;;10.00;7.00;;;21.50;73.00;;;21.82;55.70;94911.53;5004575;28;20702;-77
2021/08/19 08:05:35;;;;;;;7.07;5.55;;;21.50;73.10;;;21.85;55.12;94907.53;5032050;28;20223;-78
2021/08/19 08:08:06;;;;;;;8.32;5.78;;;21.60;72.80;;;21.88;55.07;94912.34;5016529;28;20192;-77
2021/08/19 08:10:38;;;;;;;9.05;5.97;;;21.60;72.50;;;21.90;54.85;94912.91;5049266;28;20244;-77
2021/08/19 08:13:09;;;;;;;6.35;4.70;;;21.70;72.70;;;21.98;55.38;94911.59;5033912;28;20285;-77
2021/08/19 08:15:38;;;;;;;6.60;5.25;;;21.70;72.70;;;22.07;54.86;94918.81;5051080;28;20213;-78
2021/08/19 08:18:06;;;;;;;8.20;5.85;;;21.80;72.30;;;22.11;53.94;94918.28;5018004;28;20216;-78
2021/08/19 08:20:34;;;;;;;7.72;5.35;;;21.80;71.80;;;22.15;53.58;94920.16;5049936;28;20712;-78
2021/08/19 08:23:01;;;;;;;6.82;4.97;;;21.90;71.50;;;22.22;54.04;94923.38;5034322;28;20196;-78
2021/08/19 08:25:28;;;;;;;6.65;4.32;;;21.90;71.90;;;22.31;53.95;94920.19;5033282;28;20731;-77
2021/08/19 08:28:10;;;;;;;6.25;4.80;;;21.90;71.90;;;22.42;53.83;94929.03;5048330;28;20202;-77
2021/08/19 08:30:42;;;;;;;5.30;4.20;;;22.10;71.90;;;22.52;54.35;94923.69;5035731;28;20233;-78
2021/08/19 08:33:09;;;;;;;5.90;4.70;;;22.10;72.10;;;22.64;53.64;94918.09;5041286;28;20213;-78
2021/08/19 08:35:37;;;;;;;6.10;4.18;;;22.20;71.70;;;22.74;53.16;94926.13;5033784;28;20211;-78
2021/08/19 08:38:11;;;;;;;4.95;4.20;;;22.30;71.30;;;22.82;52.32;94922.88;5019665;28;20220;-77
2021/08/19 08:40:42;;;;;;;5.00;4.10;;;22.40;70.90;;;22.90;52.18;94920.72;5014480;28;20322;-78
2021/08/19 08:43:10;;;;;;;4.97;4.25;;;22.50;70.70;;;22.91;52.07;94930.38;5014916;28;20223;-78
2021/08/19 08:45:39;;;;;;;5.68;4.03;;;22.60;70.30;;;22.90;51.30;94936.78;5014652;28;20231;-78
2021/08/19 08:48:20;;;;;;;5.28;3.72;;;22.60;69.70;;;22.95;52.29;94936.75;5030443;28;20195;-77
2021/08/19 08:50:49;;;;;;;5.15;3.72;;;22.60;70.20;;;23.08;52.47;94938.88;5015925;28;20235;-78
2021/08/19 08:53:16;;;;;;;5.97;3.88;;;22.70;70.40;;;23.16;51.94;94937.56;5030930;28;20197;-78
2021/08/19 08:55:45;;;;;;;5.28;4.00;;;22.70;70.10;;;23.17;51.09;94939.19;5014390;28;20289;-78
2021/08/19 08:58:13;;;;;;;4.07;3.50;;;22.80;69.60;;;23.15;51.79;94938.63;5030996;28;20651;-77
2021/08/19 09:00:42;;;;;;;5.80;4.55;;;22.80;69.90;;;23.15;51.11;94943.97;5014435;28;20636;-78
2021/08/19 09:03:14;;;;;;;5.65;4.20;;;22.90;69.40;;;23.04;50.89;94951.22;5021101;28;20221;-77
2021/08/19 09:05:52;;;;;;;5.50;4.00;;;22.90;69.10;;;22.97;51.26;94938.13;5014585;28;20217;-78
2021/08/19 09:08:24;;;;;;;3.92;3.40;;;22.90;69.20;;;22.92;51.88;94943.47;5031554;28;20197;-78
2021/08/19 09:10:55;;;;;;;5.53;4.13;;;22.80;69.20;;;22.94;52.00;94937.88;5030942;28;20721;-77
2021/08/19 09:13:26;;;;;;;4.55;3.45;;;22.80;69.40;;;23.01;52.13;94936.50;4998396;28;20209;-78
2021/08/19 09:15:55;;;;;;;5.18;3.67;;;22.80;69.80;;;23.20;52.36;94937.84;5014593;28;20656;-77
2021/08/19 09:18:37;;;;;;;6.43;4.32;;;22.80;70.00;;;23.39;51.58;94936.19;5030463;28;20228;-78
2021/08/19 09:21:24;;;;;;;5.18;4.15;;;22.90;69.90;;;23.49;51.03;94930.00;5026983;28;20248;-77
2021/08/19 09:24:19;;;;;;;5.25;4.13;;;23.00;69.70;;;23.56;50.15;94925.16;5048916;28;20191;-78
2021/08/19 09:26:49;;;;;;;7.28;4.35;;;23.10;69.10;;;23.61;49.65;94930.47;5012824;28;20227;-78
2021/08/19 09:29:30;;;;;;;4.05;3.47;;;23.20;68.20;;;23.72;50.27;94936.59;5029632;28;20192;-78
2021/08/19 09:32:19;;;;;;;4.43;3.80;;;23.30;68.60;;;23.82;50.32;94922.38;5014866;28;20199;-78
2021/08/19 09:34:50;;;;;;;4.68;3.95;;;23.30;69.00;;;23.93;49.99;94925.81;5052860;28;20249;-78
2021/08/19 09:37:20;;;;;;;4.32;3.47;;;23.40;68.50;;;23.98;49.22;94920.44;5019446;28;20234;-78
2021/08/19 09:39:55;;;;;;;4.88;3.88;;;23.50;68.20;;;23.96;49.08;94923.41;5015737;28;20288;-78
2021/08/19 09:42:37;;;;;;;6.28;3.50;;;23.50;67.70;;;23.95;48.73;94921.78;5015654;28;20292;-78
2021/08/19 09:45:22;;;;;;;6.22;4.55;;;23.60;67.90;;;23.91;48.61;94914.53;5015759;28;20220;-78
2021/08/19 09:47:51;;;;;;;4.95;3.83;;;23.70;67.60;;;23.85;48.79;94919.13;5032022;28;20246;-77
2021/08/19 09:50:23;;;;;;;4.53;4.03;;;23.60;67.20;;;23.83;48.99;94910.56;5026441;28;20319;-78
2021/08/19 09:52:52;;;;;;;5.90;4.10;;;23.60;67.10;;;23.83;49.25;94913.25;5054016;28;20210;-77
2021/08/19 09:55:31;;;;;;;4.65;3.80;;;23.60;67.30;;;23.83;49.26;94907.91;5021273;28;20460;-78
2021/08/19 09:58:00;;;;;;;4.25;3.85;;;23.60;67.40;;;23.84;49.02;94909.50;5035750;28;20255;-77
2021/08/19 10:00:36;;;;;;;5.05;3.72;;;23.60;67.30;;;23.93;49.53;94907.06;5020906;28;20228;-78
2021/08/19 10:03:05;;;;;;;5.30;4.03;;;23.60;68.00;;;24.05;49.31;94914.78;5030877;28;20261;-78
2021/08/19 10:05:32;;;;;;;4.00;3.33;;;23.70;67.70;;;24.13;48.97;94904.28;5036725;28;20234;-79
2021/08/19 10:07:59;;;;;;;6.78;3.70;;;23.70;67.40;;;24.28;49.42;94902.56;5053719;28;20199;-78
2021/08/19 10:10:28;;;;;;;3.92;3.20;;;23.80;67.90;;;24.40;49.06;94902.19;5036564;28;20283;-78
2021/08/19 10:13:03;;;;;;;5.10;3.42;;;23.90;67.60;;;24.50;48.46;94904.00;5023511;28;20197;-78
2021/08/19 10:15:35;;;;;;;3.28;2.97;;;24.00;66.70;;;24.57;48.28;94897.25;5014861;28;20272;-78
2021/08/19 10:18:06;;;;;;;4.63;3.15;;;24.10;66.70;;;24.66;48.24;94902.03;5017297;28;20301;-78
2021/08/19 10:20:46;;;;;;;3.95;3.10;;;24.20;66.80;;;24.71;46.68;94893.94;5016551;28;20603;-78
2021/08/19 10:23:15;;;;;;;3.60;3.08;;;24.30;66.40;;;24.72;47.08;94885.63;5032999;28;20184;-78
2021/08/19 10:25:43;;;;;;;3.97;2.90;;;24.40;66.70;;;24.85;47.94;94886.84;5033060;28;20684;-78